sensor_id;sensor_type;location;lat;lon;timestamp;temperature;humidity
57829;DHT22;43657;52.698;6.314;2022-10-31T00:00:19;11.10;99.90
57829;DHT22;43657;52.698;6.314;2022-10-31T00:02:45;11.10;99.90
57829;DHT22;43657;52.698;6.314;2022-10-31T00:05:11;11.00;99.90
57829;DHT22;43657;52.698;6.314;2022-10-31T00:07:36;11.00;99.90
57829;DHT22;43657;52.698;6.314;2022-10-31T00:10:02;10.90;99.90
57829;DHT22;43657;52.698;6.314;2022-10-31T00:12:28;10.90;99.90
57829;DHT22;43657;52.698;6.314;2022-10-31T00:14:54;10.80;99.90
57829;DHT22;43657;52.698;6.314;2022-10-31T00:17:19;10.80;99.90
57829;DHT22;43657;52.698;6.314;2022-10-31T00:19:45;10.80;99.90
57829;DHT22;43657;52.698;6.314;2022-10-31T00:22:10;10.80;99.90
57829;DHT22;43657;52.698;6.314;2022-10-31T00:24:36;10.70;99.90
57829;DHT22;43657;52.698;6.314;2022-10-31T00:27:01;10.60;99.90
57829;DHT22;43657;52.698;6.314;2022-10-31T00:29:27;10.70;99.90
57829;DHT22;43657;52.698;6.314;2022-10-31T00:31:53;10.70;99.90
57829;DHT22;43657;52.698;6.314;2022-10-31T00:34:18;10.70;99.90
57829;DHT22;43657;52.698;6.314;2022-10-31T00:36:44;10.70;99.90
57829;DHT22;43657;52.698;6.314;2022-10-31T00:39:09;10.70;99.90
57829;DHT22;43657;52.698;6.314;2022-10-31T00:41:35;10.60;99.90
57829;DHT22;43657;52.698;6.314;2022-10-31T00:44:01;10.60;99.90
57829;DHT22;43657;52.698;6.314;2022-10-31T00:46:26;10.60;99.90
57829;DHT22;43657;52.698;6.314;2022-10-31T00:48:52;10.60;99.90
57829;DHT22;43657;52.698;6.314;2022-10-31T00:51:17;10.60;99.90
57829;DHT22;43657;52.698;6.314;2022-10-31T00:53:43;10.50;99.90
57829;DHT22;43657;52.698;6.314;2022-10-31T00:56:09;10.50;99.90
57829;DHT22;43657;52.698;6.314;2022-10-31T00:58:34;10.50;99.90
57829;DHT22;43657;52.698;6.314;2022-10-31T01:01:00;10.40;99.90
57829;DHT22;43657;52.698;6.314;2022-10-31T01:03:31;10.50;99.90
57829;DHT22;43657;52.698;6.314;2022-10-31T01:08:29;10.40;99.90
57829;DHT22;43657;52.698;6.314;2022-10-31T01:11:03;10.40;99.90
57829;DHT22;43657;52.698;6.314;2022-10-31T01:13:29;10.50;99.90
57829;DHT22;43657;52.698;6.314;2022-10-31T01:15:59;10.40;99.90
57829;DHT22;43657;52.698;6.314;2022-10-31T01:18:26;10.40;99.90
57829;DHT22;43657;52.698;6.314;2022-10-31T01:21:05;10.40;99.90
57829;DHT22;43657;52.698;6.314;2022-10-31T01:23:31;10.40;99.90
57829;DHT22;43657;52.698;6.314;2022-10-31T01:26:02;10.40;99.90
57829;DHT22;43657;52.698;6.314;2022-10-31T01:28:28;10.40;99.90
57829;DHT22;43657;52.698;6.314;2022-10-31T01:30:53;10.40;99.90
57829;DHT22;43657;52.698;6.314;2022-10-31T01:33:19;10.40;99.90
57829;DHT22;43657;52.698;6.314;2022-10-31T01:35:45;10.40;99.90
57829;DHT22;43657;52.698;6.314;2022-10-31T01:38:10;10.40;99.90
57829;DHT22;43657;52.698;6.314;2022-10-31T01:40:36;10.40;99.90
57829;DHT22;43657;52.698;6.314;2022-10-31T01:43:01;10.40;99.90
57829;DHT22;43657;52.698;6.314;2022-10-31T01:45:27;10.40;99.90
57829;DHT22;43657;52.698;6.314;2022-10-31T01:47:52;10.40;99.90
57829;DHT22;43657;52.698;6.314;2022-10-31T01:50:38;10.40;99.90
57829;DHT22;43657;52.698;6.314;2022-10-31T01:53:06;10.30;99.90
57829;DHT22;43657;52.698;6.314;2022-10-31T01:55:37;10.30;99.90
57829;DHT22;43657;52.698;6.314;2022-10-31T01:58:12;10.30;99.90
57829;DHT22;43657;52.698;6.314;2022-10-31T02:00:39;10.20;99.90
57829;DHT22;43657;52.698;6.314;2022-10-31T02:03:07;10.20;99.90
57829;DHT22;43657;52.698;6.314;2022-10-31T02:05:33;10.10;99.90
57829;DHT22;43657;52.698;6.314;2022-10-31T02:08:15;10.10;99.90
57829;DHT22;43657;52.698;6.314;2022-10-31T02:10:43;10.10;99.90
57829;DHT22;43657;52.698;6.314;2022-10-31T02:13:09;10.00;99.90
57829;DHT22;43657;52.698;6.314;2022-10-31T02:15:37;10.00;99.90
57829;DHT22;43657;52.698;6.314;2022-10-31T02:18:04;10.00;99.90
57829;DHT22;43657;52.698;6.314;2022-10-31T02:20:35;10.00;99.90
57829;DHT22;43657;52.698;6.314;2022-10-31T02:31:46;10.00;99.90
57829;DHT22;43657;52.698;6.314;2022-10-31T02:34:21;9.90;99.90
57829;DHT22;43657;52.698;6.314;2022-10-31T02:43:02;9.80;99.90
57829;DHT22;43657;52.698;6.314;2022-10-31T02:45:30;9.80;99.90
57829;DHT22;43657;52.698;6.314;2022-10-31T02:48:06;9.80;99.90
57829;DHT22;43657;52.698;6.314;2022-10-31T02:50:35;9.80;99.90
57829;DHT22;43657;52.698;6.314;2022-10-31T02:53:03;9.80;99.90
57829;DHT22;43657;52.698;6.314;2022-10-31T02:58:00;9.70;99.90
57829;DHT22;43657;52.698;6.314;2022-10-31T03:00:30;9.70;99.90
57829;DHT22;43657;52.698;6.314;2022-10-31T03:03:25;9.60;99.90
57829;DHT22;43657;52.698;6.314;2022-10-31T03:08:54;9.50;99.90
57829;DHT22;43657;52.698;6.314;2022-10-31T03:11:24;9.50;99.90
57829;DHT22;43657;52.698;6.314;2022-10-31T03:14:04;9.50;99.90
57829;DHT22;43657;52.698;6.314;2022-10-31T03:16:52;9.50;99.90
57829;DHT22;43657;52.698;6.314;2022-10-31T03:19:26;9.50;99.90
57829;DHT22;43657;52.698;6.314;2022-10-31T03:21:57;9.50;99.90
57829;DHT22;43657;52.698;6.314;2022-10-31T03:24:27;9.50;99.90
57829;DHT22;43657;52.698;6.314;2022-10-31T03:26:58;9.50;99.90
57829;DHT22;43657;52.698;6.314;2022-10-31T03:29:28;9.50;99.90
57829;DHT22;43657;52.698;6.314;2022-10-31T03:31:58;9.50;99.90
57829;DHT22;43657;52.698;6.314;2022-10-31T03:34:25;9.50;99.90
57829;DHT22;43657;52.698;6.314;2022-10-31T03:36:55;9.40;99.90
57829;DHT22;43657;52.698;6.314;2022-10-31T03:39:22;9.40;99.90
57829;DHT22;43657;52.698;6.314;2022-10-31T03:41:54;9.40;99.90
57829;DHT22;43657;52.698;6.314;2022-10-31T03:44:22;9.40;99.90
57829;DHT22;43657;52.698;6.314;2022-10-31T03:46:49;9.30;99.90
57829;DHT22;43657;52.698;6.314;2022-10-31T03:49:15;9.30;99.90
57829;DHT22;43657;52.698;6.314;2022-10-31T03:51:58;9.30;99.90
57829;DHT22;43657;52.698;6.314;2022-10-31T03:54:36;9.10;99.90
57829;DHT22;43657;52.698;6.314;2022-10-31T03:57:37;9.20;99.90
57829;DHT22;43657;52.698;6.314;2022-10-31T04:00:06;9.10;99.90
57829;DHT22;43657;52.698;6.314;2022-10-31T04:02:35;9.00;99.90
57829;DHT22;43657;52.698;6.314;2022-10-31T04:05:04;9.00;99.90
57829;DHT22;43657;52.698;6.314;2022-10-31T04:07:34;9.00;99.90
57829;DHT22;43657;52.698;6.314;2022-10-31T04:10:03;8.90;99.90
57829;DHT22;43657;52.698;6.314;2022-10-31T04:12:31;8.90;99.90
57829;DHT22;43657;52.698;6.314;2022-10-31T04:14:59;8.90;99.90
57829;DHT22;43657;52.698;6.314;2022-10-31T04:17:29;8.80;99.90
57829;DHT22;43657;52.698;6.314;2022-10-31T04:19:59;8.80;99.90
57829;DHT22;43657;52.698;6.314;2022-10-31T04:22:25;8.80;99.90
57829;DHT22;43657;52.698;6.314;2022-10-31T04:24:51;8.80;99.90
57829;DHT22;43657;52.698;6.314;2022-10-31T04:27:16;8.80;99.90
57829;DHT22;43657;52.698;6.314;2022-10-31T04:29:42;8.80;99.90
57829;DHT22;43657;52.698;6.314;2022-10-31T04:32:07;8.80;99.90
57829;DHT22;43657;52.698;6.314;2022-10-31T04:34:33;8.80;99.90
57829;DHT22;43657;52.698;6.314;2022-10-31T04:36:59;8.70;99.90
57829;DHT22;43657;52.698;6.314;2022-10-31T04:39:24;8.70;99.90
57829;DHT22;43657;52.698;6.314;2022-10-31T04:41:50;8.70;99.90
57829;DHT22;43657;52.698;6.314;2022-10-31T04:44:16;8.60;99.90
57829;DHT22;43657;52.698;6.314;2022-10-31T04:46:41;8.60;99.90
57829;DHT22;43657;52.698;6.314;2022-10-31T04:49:07;8.60;99.90
57829;DHT22;43657;52.698;6.314;2022-10-31T04:51:33;8.60;99.90
57829;DHT22;43657;52.698;6.314;2022-10-31T04:53:58;8.60;99.90
57829;DHT22;43657;52.698;6.314;2022-10-31T04:56:24;8.60;99.90
57829;DHT22;43657;52.698;6.314;2022-10-31T04:58:49;8.60;99.90
57829;DHT22;43657;52.698;6.314;2022-10-31T05:01:15;8.50;99.90
57829;DHT22;43657;52.698;6.314;2022-10-31T05:03:41;8.50;99.90
57829;DHT22;43657;52.698;6.314;2022-10-31T05:06:07;8.50;99.90
57829;DHT22;43657;52.698;6.314;2022-10-31T05:08:33;8.50;99.90
57829;DHT22;43657;52.698;6.314;2022-10-31T05:11:03;8.50;99.90
57829;DHT22;43657;52.698;6.314;2022-10-31T05:13:29;8.40;99.90
57829;DHT22;43657;52.698;6.314;2022-10-31T05:15:55;8.50;99.90
57829;DHT22;43657;52.698;6.314;2022-10-31T05:18:20;8.50;99.90
57829;DHT22;43657;52.698;6.314;2022-10-31T05:20:46;8.50;99.90
57829;DHT22;43657;52.698;6.314;2022-10-31T05:23:12;8.50;99.90
57829;DHT22;43657;52.698;6.314;2022-10-31T05:25:39;8.50;99.90
57829;DHT22;43657;52.698;6.314;2022-10-31T05:28:05;8.50;99.90
57829;DHT22;43657;52.698;6.314;2022-10-31T05:30:31;8.50;99.90
57829;DHT22;43657;52.698;6.314;2022-10-31T05:32:57;8.50;99.90
57829;DHT22;43657;52.698;6.314;2022-10-31T05:35:28;8.60;99.90
57829;DHT22;43657;52.698;6.314;2022-10-31T05:37:55;8.60;99.90
57829;DHT22;43657;52.698;6.314;2022-10-31T05:40:21;8.60;99.90
57829;DHT22;43657;52.698;6.314;2022-10-31T05:42:50;8.60;99.90
57829;DHT22;43657;52.698;6.314;2022-10-31T05:45:16;8.50;99.90
57829;DHT22;43657;52.698;6.314;2022-10-31T05:47:49;8.50;99.90
57829;DHT22;43657;52.698;6.314;2022-10-31T05:50:14;8.50;99.90
57829;DHT22;43657;52.698;6.314;2022-10-31T05:52:40;8.40;99.90
57829;DHT22;43657;52.698;6.314;2022-10-31T05:55:06;8.40;99.90
57829;DHT22;43657;52.698;6.314;2022-10-31T05:57:32;8.40;99.90
57829;DHT22;43657;52.698;6.314;2022-10-31T05:59:57;8.30;99.90
57829;DHT22;43657;52.698;6.314;2022-10-31T06:02:23;8.30;99.90
57829;DHT22;43657;52.698;6.314;2022-10-31T06:04:49;8.30;99.90
57829;DHT22;43657;52.698;6.314;2022-10-31T06:07:14;8.30;99.90
57829;DHT22;43657;52.698;6.314;2022-10-31T06:09:40;8.20;99.90
57829;DHT22;43657;52.698;6.314;2022-10-31T06:12:05;8.20;99.90
57829;DHT22;43657;52.698;6.314;2022-10-31T06:14:31;8.10;99.90
57829;DHT22;43657;52.698;6.314;2022-10-31T06:16:56;8.10;99.90
57829;DHT22;43657;52.698;6.314;2022-10-31T06:19:22;8.10;99.90
57829;DHT22;43657;52.698;6.314;2022-10-31T06:21:48;8.10;99.90
57829;DHT22;43657;52.698;6.314;2022-10-31T06:24:13;8.10;99.90
57829;DHT22;43657;52.698;6.314;2022-10-31T06:26:40;8.00;99.90
57829;DHT22;43657;52.698;6.314;2022-10-31T06:29:06;8.00;99.90
57829;DHT22;43657;52.698;6.314;2022-10-31T06:31:31;8.00;99.90
57829;DHT22;43657;52.698;6.314;2022-10-31T06:33:57;8.10;99.90
57829;DHT22;43657;52.698;6.314;2022-10-31T06:36:22;8.00;99.90
57829;DHT22;43657;52.698;6.314;2022-10-31T06:38:48;8.00;99.90
57829;DHT22;43657;52.698;6.314;2022-10-31T06:41:13;8.00;99.90
57829;DHT22;43657;52.698;6.314;2022-10-31T06:43:39;7.90;99.90
57829;DHT22;43657;52.698;6.314;2022-10-31T06:46:05;7.90;99.90
57829;DHT22;43657;52.698;6.314;2022-10-31T06:48:31;7.90;99.90
57829;DHT22;43657;52.698;6.314;2022-10-31T06:51:01;7.80;99.90
57829;DHT22;43657;52.698;6.314;2022-10-31T06:53:27;7.80;99.90
57829;DHT22;43657;52.698;6.314;2022-10-31T06:55:55;7.80;99.90
57829;DHT22;43657;52.698;6.314;2022-10-31T06:58:21;7.80;99.90
57829;DHT22;43657;52.698;6.314;2022-10-31T07:00:47;7.80;99.90
57829;DHT22;43657;52.698;6.314;2022-10-31T07:03:14;7.80;99.90
57829;DHT22;43657;52.698;6.314;2022-10-31T07:05:41;7.70;99.90
57829;DHT22;43657;52.698;6.314;2022-10-31T07:08:10;7.70;99.90
57829;DHT22;43657;52.698;6.314;2022-10-31T07:10:37;7.70;99.90
57829;DHT22;43657;52.698;6.314;2022-10-31T07:13:05;7.70;99.90
57829;DHT22;43657;52.698;6.314;2022-10-31T07:15:36;7.80;99.90
57829;DHT22;43657;52.698;6.314;2022-10-31T07:18:05;7.80;99.90
57829;DHT22;43657;52.698;6.314;2022-10-31T07:20:31;7.80;99.90
57829;DHT22;43657;52.698;6.314;2022-10-31T07:22:57;7.90;99.90
57829;DHT22;43657;52.698;6.314;2022-10-31T07:25:24;7.90;99.90
57829;DHT22;43657;52.698;6.314;2022-10-31T07:27:49;8.00;99.90
57829;DHT22;43657;52.698;6.314;2022-10-31T07:30:15;8.10;99.90
57829;DHT22;43657;52.698;6.314;2022-10-31T07:32:46;8.10;99.90
57829;DHT22;43657;52.698;6.314;2022-10-31T07:35:41;8.10;99.90
57829;DHT22;43657;52.698;6.314;2022-10-31T07:38:16;8.20;99.90
57829;DHT22;43657;52.698;6.314;2022-10-31T07:41:38;8.20;99.90
57829;DHT22;43657;52.698;6.314;2022-10-31T07:44:16;8.30;99.90
57829;DHT22;43657;52.698;6.314;2022-10-31T07:46:48;8.40;99.90
57829;DHT22;43657;52.698;6.314;2022-10-31T07:49:24;8.40;99.90
57829;DHT22;43657;52.698;6.314;2022-10-31T07:51:57;8.50;99.90
57829;DHT22;43657;52.698;6.314;2022-10-31T07:54:59;8.50;99.90
57829;DHT22;43657;52.698;6.314;2022-10-31T07:57:40;8.60;99.90
57829;DHT22;43657;52.698;6.314;2022-10-31T08:00:12;8.70;99.90
57829;DHT22;43657;52.698;6.314;2022-10-31T08:02:57;8.80;99.90
57829;DHT22;43657;52.698;6.314;2022-10-31T08:05:30;8.90;99.90
57829;DHT22;43657;52.698;6.314;2022-10-31T08:07:57;8.90;99.90
57829;DHT22;43657;52.698;6.314;2022-10-31T08:10:26;8.90;99.90
57829;DHT22;43657;52.698;6.314;2022-10-31T08:13:03;9.00;99.90
57829;DHT22;43657;52.698;6.314;2022-10-31T08:15:30;9.10;99.90
57829;DHT22;43657;52.698;6.314;2022-10-31T08:17:59;9.20;99.90
57829;DHT22;43657;52.698;6.314;2022-10-31T08:20:26;9.30;99.90
57829;DHT22;43657;52.698;6.314;2022-10-31T08:22:53;9.30;99.90
57829;DHT22;43657;52.698;6.314;2022-10-31T08:25:19;9.40;99.90
57829;DHT22;43657;52.698;6.314;2022-10-31T08:27:53;9.40;99.90
57829;DHT22;43657;52.698;6.314;2022-10-31T08:30:24;9.50;99.90
57829;DHT22;43657;52.698;6.314;2022-10-31T08:33:04;9.60;99.90
57829;DHT22;43657;52.698;6.314;2022-10-31T08:35:32;9.60;99.90
57829;DHT22;43657;52.698;6.314;2022-10-31T08:38:01;9.70;99.90
57829;DHT22;43657;52.698;6.314;2022-10-31T08:40:31;9.80;99.90
57829;DHT22;43657;52.698;6.314;2022-10-31T08:43:03;9.70;99.90
57829;DHT22;43657;52.698;6.314;2022-10-31T08:45:31;9.80;99.90
57829;DHT22;43657;52.698;6.314;2022-10-31T08:47:59;9.90;99.90
57829;DHT22;43657;52.698;6.314;2022-10-31T08:50:25;9.90;99.90
57829;DHT22;43657;52.698;6.314;2022-10-31T08:52:51;9.90;99.90
57829;DHT22;43657;52.698;6.314;2022-10-31T08:55:20;9.90;99.90
57829;DHT22;43657;52.698;6.314;2022-10-31T08:57:46;9.90;99.90
57829;DHT22;43657;52.698;6.314;2022-10-31T09:00:13;10.00;99.90
57829;DHT22;43657;52.698;6.314;2022-10-31T09:02:43;10.10;99.90
57829;DHT22;43657;52.698;6.314;2022-10-31T09:05:10;10.10;99.90
57829;DHT22;43657;52.698;6.314;2022-10-31T09:07:36;10.30;99.90
57829;DHT22;43657;52.698;6.314;2022-10-31T09:10:02;10.40;99.90
57829;DHT22;43657;52.698;6.314;2022-10-31T09:12:28;10.40;99.90
57829;DHT22;43657;52.698;6.314;2022-10-31T09:14:55;10.60;99.90
57829;DHT22;43657;52.698;6.314;2022-10-31T09:17:21;10.60;99.90
57829;DHT22;43657;52.698;6.314;2022-10-31T09:19:47;10.70;99.90
57829;DHT22;43657;52.698;6.314;2022-10-31T09:22:14;10.80;99.90
57829;DHT22;43657;52.698;6.314;2022-10-31T09:24:40;10.90;99.90
57829;DHT22;43657;52.698;6.314;2022-10-31T09:27:06;10.90;99.90
57829;DHT22;43657;52.698;6.314;2022-10-31T09:29:34;11.00;99.90
57829;DHT22;43657;52.698;6.314;2022-10-31T09:32:00;11.10;99.90
57829;DHT22;43657;52.698;6.314;2022-10-31T09:34:27;11.10;99.90
57829;DHT22;43657;52.698;6.314;2022-10-31T09:36:53;11.20;99.90
57829;DHT22;43657;52.698;6.314;2022-10-31T09:39:20;11.40;99.90
57829;DHT22;43657;52.698;6.314;2022-10-31T09:45:13;11.50;99.90
57829;DHT22;43657;52.698;6.314;2022-10-31T09:51:00;11.50;99.90
57829;DHT22;43657;52.698;6.314;2022-10-31T09:53:54;11.60;99.90
57829;DHT22;43657;52.698;6.314;2022-10-31T09:56:25;11.70;99.90
57829;DHT22;43657;52.698;6.314;2022-10-31T09:58:59;11.70;99.90
57829;DHT22;43657;52.698;6.314;2022-10-31T10:01:33;11.80;99.90
57829;DHT22;43657;52.698;6.314;2022-10-31T10:06:56;12.00;99.90
57829;DHT22;43657;52.698;6.314;2022-10-31T10:09:25;12.10;99.90
57829;DHT22;43657;52.698;6.314;2022-10-31T10:12:19;12.20;99.90
57829;DHT22;43657;52.698;6.314;2022-10-31T10:15:08;12.40;99.90
57829;DHT22;43657;52.698;6.314;2022-10-31T10:23:34;13.00;99.90
57829;DHT22;43657;52.698;6.314;2022-10-31T10:26:13;13.30;99.90
57829;DHT22;43657;52.698;6.314;2022-10-31T10:28:54;13.40;99.90
57829;DHT22;43657;52.698;6.314;2022-10-31T10:31:31;13.50;99.90
57829;DHT22;43657;52.698;6.314;2022-10-31T10:34:11;13.70;99.90
57829;DHT22;43657;52.698;6.314;2022-10-31T10:36:44;13.90;99.90
57829;DHT22;43657;52.698;6.314;2022-10-31T10:39:17;14.00;99.90
57829;DHT22;43657;52.698;6.314;2022-10-31T10:41:47;14.00;99.90
57829;DHT22;43657;52.698;6.314;2022-10-31T10:44:40;14.10;99.90
57829;DHT22;43657;52.698;6.314;2022-10-31T10:47:36;14.20;99.90
57829;DHT22;43657;52.698;6.314;2022-10-31T10:50:22;14.20;99.90
57829;DHT22;43657;52.698;6.314;2022-10-31T10:53:09;14.20;99.90
57829;DHT22;43657;52.698;6.314;2022-10-31T10:58:39;14.30;99.90
57829;DHT22;43657;52.698;6.314;2022-10-31T11:01:14;14.40;99.90
57829;DHT22;43657;52.698;6.314;2022-10-31T11:03:41;14.40;99.90
57829;DHT22;43657;52.698;6.314;2022-10-31T11:06:22;14.40;99.90
57829;DHT22;43657;52.698;6.314;2022-10-31T11:08:54;14.40;99.90
57829;DHT22;43657;52.698;6.314;2022-10-31T11:11:26;14.40;99.90
57829;DHT22;43657;52.698;6.314;2022-10-31T11:13:58;14.50;99.90
57829;DHT22;43657;52.698;6.314;2022-10-31T11:16:34;14.40;99.90
57829;DHT22;43657;52.698;6.314;2022-10-31T11:21:47;14.50;99.90
57829;DHT22;43657;52.698;6.314;2022-10-31T11:24:19;14.60;99.90
57829;DHT22;43657;52.698;6.314;2022-10-31T11:26:48;14.60;99.90
57829;DHT22;43657;52.698;6.314;2022-10-31T11:31:45;14.60;99.90
57829;DHT22;43657;52.698;6.314;2022-10-31T11:34:29;14.70;99.90
57829;DHT22;43657;52.698;6.314;2022-10-31T11:37:25;14.80;99.90
57829;DHT22;43657;52.698;6.314;2022-10-31T11:39:56;14.80;99.90
57829;DHT22;43657;52.698;6.314;2022-10-31T11:42:27;14.90;99.90
57829;DHT22;43657;52.698;6.314;2022-10-31T11:44:56;15.00;99.90
57829;DHT22;43657;52.698;6.314;2022-10-31T11:47:40;15.00;99.90
57829;DHT22;43657;52.698;6.314;2022-10-31T11:50:22;15.10;99.90
57829;DHT22;43657;52.698;6.314;2022-10-31T11:52:53;15.20;99.90
57829;DHT22;43657;52.698;6.314;2022-10-31T11:55:35;15.20;99.90
57829;DHT22;43657;52.698;6.314;2022-10-31T11:58:24;15.20;99.90
57829;DHT22;43657;52.698;6.314;2022-10-31T12:00:55;15.20;99.90
57829;DHT22;43657;52.698;6.314;2022-10-31T12:03:38;15.20;99.90
57829;DHT22;43657;52.698;6.314;2022-10-31T12:06:28;15.20;99.90
57829;DHT22;43657;52.698;6.314;2022-10-31T12:08:59;15.20;99.90
57829;DHT22;43657;52.698;6.314;2022-10-31T12:36:12;15.20;99.90
57829;DHT22;43657;52.698;6.314;2022-10-31T12:47:54;15.20;99.90
57829;DHT22;43657;52.698;6.314;2022-10-31T12:53:19;15.30;99.90
57829;DHT22;43657;52.698;6.314;2022-10-31T12:59:11;15.50;99.90
57829;DHT22;43657;52.698;6.314;2022-10-31T13:02:03;15.70;99.90
57829;DHT22;43657;52.698;6.314;2022-10-31T13:07:19;16.00;99.90
57829;DHT22;43657;52.698;6.314;2022-10-31T13:10:04;16.00;99.90
57829;DHT22;43657;52.698;6.314;2022-10-31T13:12:33;16.00;99.90
57829;DHT22;43657;52.698;6.314;2022-10-31T13:15:20;15.90;99.90
57829;DHT22;43657;52.698;6.314;2022-10-31T13:18:11;15.80;99.90
57829;DHT22;43657;52.698;6.314;2022-10-31T13:20:42;15.70;99.90
57829;DHT22;43657;52.698;6.314;2022-10-31T13:23:27;15.70;99.90
57829;DHT22;43657;52.698;6.314;2022-10-31T13:26:09;15.70;99.90
57829;DHT22;43657;52.698;6.314;2022-10-31T13:28:53;15.60;99.90
57829;DHT22;43657;52.698;6.314;2022-10-31T13:31:21;15.60;99.90
57829;DHT22;43657;52.698;6.314;2022-10-31T13:33:55;15.70;99.90
57829;DHT22;43657;52.698;6.314;2022-10-31T13:36:36;15.60;99.90
57829;DHT22;43657;52.698;6.314;2022-10-31T13:39:35;15.60;99.90
57829;DHT22;43657;52.698;6.314;2022-10-31T13:44:45;15.60;99.90
57829;DHT22;43657;52.698;6.314;2022-10-31T13:47:28;15.50;99.90
57829;DHT22;43657;52.698;6.314;2022-10-31T13:52:43;15.50;99.90
57829;DHT22;43657;52.698;6.314;2022-10-31T13:55:38;15.50;99.90
57829;DHT22;43657;52.698;6.314;2022-10-31T13:58:28;15.50;99.90
57829;DHT22;43657;52.698;6.314;2022-10-31T14:01:15;15.50;99.90
57829;DHT22;43657;52.698;6.314;2022-10-31T14:03:45;15.50;99.90
57829;DHT22;43657;52.698;6.314;2022-10-31T14:06:12;15.50;99.90
57829;DHT22;43657;52.698;6.314;2022-10-31T14:08:48;15.50;99.90
57829;DHT22;43657;52.698;6.314;2022-10-31T14:11:24;15.50;99.90
57829;DHT22;43657;52.698;6.314;2022-10-31T14:13:52;15.50;99.90
57829;DHT22;43657;52.698;6.314;2022-10-31T14:16:30;15.40;99.90
57829;DHT22;43657;52.698;6.314;2022-10-31T14:19:12;15.40;99.90
57829;DHT22;43657;52.698;6.314;2022-10-31T14:21:47;15.40;99.90
57829;DHT22;43657;52.698;6.314;2022-10-31T14:24:16;15.40;99.90
57829;DHT22;43657;52.698;6.314;2022-10-31T14:29:28;15.30;99.90
57829;DHT22;43657;52.698;6.314;2022-10-31T14:34:39;15.30;99.90
57829;DHT22;43657;52.698;6.314;2022-10-31T14:37:32;15.30;99.90
57829;DHT22;43657;52.698;6.314;2022-10-31T14:43:37;15.30;99.90
57829;DHT22;43657;52.698;6.314;2022-10-31T14:51:11;15.20;99.90
57829;DHT22;43657;52.698;6.314;2022-10-31T14:53:48;15.10;99.90
57829;DHT22;43657;52.698;6.314;2022-10-31T14:56:27;15.20;99.90
57829;DHT22;43657;52.698;6.314;2022-10-31T14:58:59;15.20;99.90
57829;DHT22;43657;52.698;6.314;2022-10-31T15:01:30;15.20;99.90
57829;DHT22;43657;52.698;6.314;2022-10-31T15:04:17;15.10;99.90
57829;DHT22;43657;52.698;6.314;2022-10-31T15:06:51;15.10;99.90
57829;DHT22;43657;52.698;6.314;2022-10-31T15:11:47;15.10;99.90
57829;DHT22;43657;52.698;6.314;2022-10-31T15:14:28;15.10;99.90
57829;DHT22;43657;52.698;6.314;2022-10-31T15:16:57;15.10;99.90
57829;DHT22;43657;52.698;6.314;2022-10-31T15:19:27;15.10;99.90
57829;DHT22;43657;52.698;6.314;2022-10-31T15:21:56;15.00;99.90
57829;DHT22;43657;52.698;6.314;2022-10-31T15:24:37;15.00;99.90
57829;DHT22;43657;52.698;6.314;2022-10-31T15:27:17;15.00;99.90
57829;DHT22;43657;52.698;6.314;2022-10-31T15:29:51;14.90;99.90
57829;DHT22;43657;52.698;6.314;2022-10-31T15:34:49;14.80;99.90
57829;DHT22;43657;52.698;6.314;2022-10-31T15:37:34;14.80;99.90
57829;DHT22;43657;52.698;6.314;2022-10-31T15:40:19;14.70;99.90
57829;DHT22;43657;52.698;6.314;2022-10-31T15:43:04;14.70;99.90
57829;DHT22;43657;52.698;6.314;2022-10-31T15:45:37;14.60;99.90
57829;DHT22;43657;52.698;6.314;2022-10-31T15:48:15;14.60;99.90
57829;DHT22;43657;52.698;6.314;2022-10-31T15:53:28;14.50;99.90
57829;DHT22;43657;52.698;6.314;2022-10-31T15:56:04;14.40;99.90
57829;DHT22;43657;52.698;6.314;2022-10-31T15:58:54;14.40;99.90
57829;DHT22;43657;52.698;6.314;2022-10-31T16:01:29;14.40;99.90
57829;DHT22;43657;52.698;6.314;2022-10-31T16:04:23;14.40;99.90
57829;DHT22;43657;52.698;6.314;2022-10-31T16:07:13;14.40;99.90
57829;DHT22;43657;52.698;6.314;2022-10-31T16:10:21;14.30;99.90
57829;DHT22;43657;52.698;6.314;2022-10-31T16:13:00;14.30;99.90
57829;DHT22;43657;52.698;6.314;2022-10-31T16:15:36;14.40;99.90
57829;DHT22;43657;52.698;6.314;2022-10-31T16:18:12;14.30;99.90
57829;DHT22;43657;52.698;6.314;2022-10-31T16:20:52;14.30;99.90
57829;DHT22;43657;52.698;6.314;2022-10-31T16:23:24;14.30;99.90
57829;DHT22;43657;52.698;6.314;2022-10-31T16:25:55;14.30;99.90
57829;DHT22;43657;52.698;6.314;2022-10-31T16:28:35;14.30;99.90
57829;DHT22;43657;52.698;6.314;2022-10-31T16:31:38;14.30;99.90
57829;DHT22;43657;52.698;6.314;2022-10-31T16:34:33;14.30;99.90
57829;DHT22;43657;52.698;6.314;2022-10-31T16:37:07;14.20;99.90
57829;DHT22;43657;52.698;6.314;2022-10-31T16:39:33;14.20;99.90
57829;DHT22;43657;52.698;6.314;2022-10-31T16:42:09;14.20;99.90
57829;DHT22;43657;52.698;6.314;2022-10-31T16:44:40;14.20;99.90
57829;DHT22;43657;52.698;6.314;2022-10-31T16:47:11;14.20;99.90
57829;DHT22;43657;52.698;6.314;2022-10-31T16:49:50;14.20;99.90
57829;DHT22;43657;52.698;6.314;2022-10-31T16:52:17;14.20;99.90
57829;DHT22;43657;52.698;6.314;2022-10-31T16:54:46;14.10;99.90
57829;DHT22;43657;52.698;6.314;2022-10-31T16:57:25;14.20;99.90
57829;DHT22;43657;52.698;6.314;2022-10-31T16:59:55;14.20;99.90
57829;DHT22;43657;52.698;6.314;2022-10-31T17:02:36;14.20;99.90
57829;DHT22;43657;52.698;6.314;2022-10-31T17:05:12;14.10;99.90
57829;DHT22;43657;52.698;6.314;2022-10-31T17:08:24;14.20;99.90
57829;DHT22;43657;52.698;6.314;2022-10-31T17:11:50;14.10;99.90
57829;DHT22;43657;52.698;6.314;2022-10-31T17:35:13;14.20;99.90
57829;DHT22;43657;52.698;6.314;2022-10-31T17:37:50;14.20;99.90
57829;DHT22;43657;52.698;6.314;2022-10-31T17:40:25;14.20;99.90
57829;DHT22;43657;52.698;6.314;2022-10-31T17:43:10;14.20;99.90
57829;DHT22;43657;52.698;6.314;2022-10-31T17:45:44;14.20;99.90
57829;DHT22;43657;52.698;6.314;2022-10-31T17:48:22;14.20;99.90
57829;DHT22;43657;52.698;6.314;2022-10-31T18:02:14;14.20;99.90
57829;DHT22;43657;52.698;6.314;2022-10-31T18:05:27;14.20;99.90
57829;DHT22;43657;52.698;6.314;2022-10-31T18:08:19;14.20;99.90
57829;DHT22;43657;52.698;6.314;2022-10-31T18:11:20;14.20;99.90
57829;DHT22;43657;52.698;6.314;2022-10-31T18:14:11;14.20;99.90
57829;DHT22;43657;52.698;6.314;2022-10-31T18:16:46;14.20;99.90
57829;DHT22;43657;52.698;6.314;2022-10-31T18:19:13;14.20;99.90
57829;DHT22;43657;52.698;6.314;2022-10-31T18:21:40;14.20;99.90
57829;DHT22;43657;52.698;6.314;2022-10-31T18:24:07;14.20;99.90
57829;DHT22;43657;52.698;6.314;2022-10-31T18:26:33;14.20;99.90
57829;DHT22;43657;52.698;6.314;2022-10-31T18:28:59;14.10;99.90
57829;DHT22;43657;52.698;6.314;2022-10-31T18:31:25;14.10;99.90
57829;DHT22;43657;52.698;6.314;2022-10-31T18:33:55;14.10;99.90
57829;DHT22;43657;52.698;6.314;2022-10-31T18:36:22;14.10;99.90
57829;DHT22;43657;52.698;6.314;2022-10-31T18:38:48;14.00;99.90